createdAt,value
2019-03-01T00:00:56.393Z,29.07
2019-03-01T00:03:25.956Z,43.50
2019-03-01T00:06:31.825Z,54.30
2019-03-01T00:09:40.723Z,32.47
2019-03-01T00:12:51.093Z,32.73
2019-03-01T00:16:10.755Z,32.47
2019-03-01T00:19:27.485Z,27.53
2019-03-01T00:22:21.501Z,28.47
2019-03-01T00:25:38.206Z,26.87
2019-03-01T00:28:37.813Z,39.80
2019-03-01T00:31:48.150Z,35.20
2019-03-01T00:34:51.578Z,29.73
2019-03-01T00:37:41.799Z,44.03
2019-03-01T00:40:49.478Z,34.93
2019-03-01T00:43:55.666Z,39.57
2019-03-01T00:46:25.360Z,22.90
2019-03-01T00:48:54.947Z,60.07
2019-03-01T00:51:24.573Z,26.80
2019-03-01T00:53:54.170Z,34.73
2019-03-01T00:56:23.709Z,48.13
2019-03-01T00:58:53.267Z,32.20
2019-03-01T01:01:22.926Z,40.40
2019-03-01T01:03:54.269Z,45.63
2019-03-01T01:06:23.825Z,33.87
2019-03-01T01:08:53.642Z,39.37
2019-03-01T01:11:23.120Z,37.60
2019-03-01T01:13:52.746Z,54.43
2019-03-01T01:16:24.745Z,31.60
2019-03-01T01:18:54.469Z,51.53
2019-03-01T01:21:23.854Z,45.10
2019-03-01T01:23:53.606Z,51.03
2019-03-01T01:26:23.444Z,35.30
2019-03-01T01:28:53.183Z,43.03
2019-03-01T01:31:22.841Z,64.67
2019-03-01T01:33:52.459Z,40.43
2019-03-01T01:36:22.126Z,58.53
2019-03-01T01:38:53.464Z,40.40
2019-03-01T01:41:23.118Z,38.13
2019-03-01T01:43:55.322Z,52.77
2019-03-01T01:46:24.885Z,44.47
2019-03-01T01:48:54.719Z,61.67
2019-03-01T01:51:26.567Z,47.77
2019-03-01T01:53:56.166Z,51.33
2019-03-01T01:56:26.518Z,57.77
2019-03-01T01:58:55.975Z,43.93
2019-03-01T02:01:25.494Z,62.33
2019-03-01T02:03:55.221Z,53.33
2019-03-01T02:06:24.905Z,64.67
2019-03-01T02:08:54.734Z,46.43
2019-03-01T02:11:24.247Z,75.67
2019-03-01T02:13:53.872Z,44.27
2019-03-01T02:16:23.462Z,53.00
2019-03-01T02:18:57.749Z,48.87
2019-03-01T02:21:24.363Z,44.77
2019-03-01T02:23:53.961Z,44.90
2019-03-01T02:26:23.366Z,48.40
2019-03-01T02:28:52.769Z,47.80
2019-03-01T02:31:22.330Z,49.83
2019-03-01T02:33:51.852Z,52.27
2019-03-01T02:36:21.423Z,44.87
2019-03-01T02:38:51.157Z,47.70
2019-03-01T02:41:20.643Z,66.53
2019-03-01T02:43:50.182Z,61.33
2019-03-01T02:46:19.858Z,43.10
2019-03-01T02:48:49.356Z,52.87
2019-03-01T02:51:18.949Z,57.20
2019-03-01T02:53:48.586Z,57.90
2019-03-01T02:56:17.989Z,66.13
2019-03-01T02:58:47.380Z,59.70
2019-03-01T03:01:16.971Z,72.97
2019-03-01T03:03:46.478Z,62.50
2019-03-01T03:06:21.992Z,60.23
2019-03-01T03:08:52.558Z,58.20
2019-03-01T03:11:22.210Z,64.83
2019-03-01T03:13:51.740Z,51.47
2019-03-01T03:16:21.482Z,50.07
2019-03-01T03:18:51.117Z,49.03
2019-03-01T03:21:21.177Z,42.00
2019-03-01T03:23:50.748Z,59.60
2019-03-01T03:26:20.356Z,54.73
2019-03-01T03:28:49.918Z,69.47
2019-03-01T03:31:19.445Z,53.97
2019-03-01T03:33:48.904Z,52.50
2019-03-01T03:36:19.547Z,63.30
2019-03-01T03:38:49.204Z,68.20
2019-03-01T03:41:18.798Z,61.83
2019-03-01T03:43:48.389Z,73.83
2019-03-01T03:46:17.980Z,58.63
2019-03-01T03:48:47.415Z,54.43
2019-03-01T03:51:16.879Z,71.73
2019-03-01T03:53:46.458Z,58.13
2019-03-01T03:56:15.974Z,47.20
2019-03-01T03:58:45.542Z,63.87
2019-03-01T04:01:15.106Z,55.63
2019-03-01T04:03:45.565Z,57.30
2019-03-01T04:06:15.579Z,69.30
2019-03-01T04:08:45.166Z,63.73
2019-03-01T04:11:14.636Z,86.50
2019-03-01T04:13:44.083Z,54.60
2019-03-01T04:16:13.639Z,59.27
2019-03-01T04:18:43.184Z,93.87
2019-03-01T04:21:12.819Z,56.30
2019-03-01T04:23:42.427Z,61.73
2019-03-01T04:26:12.296Z,76.30
2019-03-01T04:28:41.798Z,58.97
2019-03-01T04:31:12.330Z,77.77
2019-03-01T04:33:41.840Z,63.00
2019-03-01T04:36:11.343Z,57.63
2019-03-01T04:38:41.223Z,65.17
2019-03-01T04:41:10.878Z,81.03
2019-03-01T04:43:40.497Z,57.27
2019-03-01T04:46:10.491Z,71.57
2019-03-01T04:48:39.996Z,67.63
2019-03-01T04:51:10.528Z,57.90
2019-03-01T04:53:40.100Z,67.77
2019-03-01T04:56:09.741Z,69.60
2019-03-01T04:58:39.370Z,55.77
2019-03-01T05:01:08.956Z,66.40
2019-03-01T05:03:38.796Z,60.10
2019-03-01T05:06:08.432Z,60.10
2019-03-01T05:08:37.983Z,76.00
2019-03-01T05:11:07.544Z,72.37
2019-03-01T05:13:37.596Z,73.80
2019-03-01T05:16:07.187Z,62.90
2019-03-01T05:18:36.667Z,77.40
2019-03-01T05:21:06.244Z,71.77
2019-03-01T05:23:35.868Z,59.90
2019-03-01T05:26:06.427Z,59.73
2019-03-01T05:28:35.943Z,68.47
2019-03-01T05:31:05.489Z,62.77
2019-03-01T05:33:35.000Z,70.27
2019-03-01T05:36:04.480Z,65.30
2019-03-01T05:38:34.066Z,65.33
2019-03-01T05:41:03.628Z,67.93
2019-03-01T05:43:33.176Z,74.77
2019-03-01T05:46:02.802Z,72.23
2019-03-01T05:48:32.493Z,72.70
2019-03-01T05:51:01.907Z,72.70
2019-03-01T05:53:31.364Z,77.23
2019-03-01T05:56:00.945Z,67.60
2019-03-01T05:58:48.254Z,57.33
2019-03-01T06:01:25.257Z,85.73
2019-03-01T06:04:07.410Z,73.63
2019-03-01T06:06:54.644Z,71.37
2019-03-01T06:09:53.404Z,90.30
2019-03-01T06:13:16.080Z,69.50
2019-03-01T06:16:29.355Z,58.80
2019-03-01T06:19:25.434Z,71.77
2019-03-01T06:22:27.131Z,84.67
2019-03-01T06:25:22.475Z,77.73
2019-03-01T06:28:20.548Z,79.80
2019-03-01T06:31:28.926Z,79.90
2019-03-01T06:34:30.501Z,83.00
2019-03-01T06:37:43.174Z,71.83
2019-03-01T06:41:19.507Z,97.30
2019-03-01T06:44:32.416Z,75.07
2019-03-01T06:47:38.620Z,75.90
2019-03-01T06:50:36.279Z,76.90
2019-03-01T06:53:05.922Z,77.83
2019-03-01T06:55:58.950Z,74.03
2019-03-01T06:58:33.949Z,74.47
2019-03-01T07:01:10.658Z,78.77
2019-03-01T07:03:40.327Z,78.27
2019-03-01T07:06:10.591Z,103.40
2019-03-01T07:08:40.058Z,98.40
2019-03-01T07:11:09.681Z,88.60
2019-03-01T07:13:39.183Z,77.77
2019-03-01T07:16:08.865Z,73.87
2019-03-01T07:18:38.317Z,77.83
2019-03-01T07:21:07.803Z,89.97
2019-03-01T07:23:40.439Z,73.43
2019-03-01T07:26:13.226Z,95.77
2019-03-01T07:28:42.822Z,78.40
2019-03-01T07:31:14.782Z,68.77
2019-03-01T07:33:44.338Z,81.70
2019-03-01T07:36:14.064Z,91.03
2019-03-01T07:38:43.628Z,78.00
2019-03-01T07:41:16.077Z,64.40
2019-03-01T07:43:45.806Z,91.50
2019-03-01T07:46:17.168Z,77.67
2019-03-01T07:48:46.682Z,72.97
2019-03-01T07:51:16.665Z,95.03
2019-03-01T07:53:47.851Z,78.93
2019-03-01T07:56:17.325Z,94.17
2019-03-01T07:58:47.376Z,85.77
2019-03-01T08:01:18.199Z,100.67
2019-03-01T08:03:52.290Z,83.10
2019-03-01T08:06:20.033Z,78.37
2019-03-01T08:08:49.533Z,82.00
2019-03-01T08:11:18.973Z,76.37
2019-03-01T08:13:49.465Z,74.30
2019-03-01T08:16:21.269Z,76.47
2019-03-01T08:18:51.232Z,87.13
2019-03-01T08:21:20.834Z,71.00
2019-03-01T08:23:50.738Z,84.97
2019-03-01T08:26:20.491Z,75.73
2019-03-01T08:28:50.016Z,73.07
2019-03-01T08:31:21.108Z,72.50
2019-03-01T08:33:50.755Z,66.73
2019-03-01T08:36:20.297Z,89.47
2019-03-01T08:38:50.093Z,77.83
2019-03-01T08:41:21.638Z,74.97
2019-03-01T08:43:52.090Z,78.10
2019-03-01T08:46:21.841Z,67.20
2019-03-01T08:48:53.763Z,84.13
2019-03-01T08:51:26.499Z,62.80
2019-03-01T08:53:56.819Z,89.27
2019-03-01T08:56:26.732Z,83.80
2019-03-01T08:58:58.786Z,70.73
2019-03-01T09:01:28.254Z,80.10
2019-03-01T09:04:03.822Z,81.17
2019-03-01T09:06:33.417Z,107.37
2019-03-01T09:09:04.553Z,103.23
2019-03-01T09:11:34.227Z,93.10
2019-03-01T09:14:04.181Z,123.10
2019-03-01T09:16:38.161Z,99.43
2019-03-01T09:19:07.802Z,88.97
2019-03-01T09:21:39.423Z,113.80
2019-03-01T09:24:08.646Z,88.97
2019-03-01T09:26:38.206Z,88.83
2019-03-01T09:29:08.538Z,82.97
2019-03-01T09:31:38.037Z,107.63
2019-03-01T09:34:07.617Z,71.33
2019-03-01T09:36:44.137Z,83.50
2019-03-01T09:39:14.519Z,106.40
2019-03-01T09:41:45.112Z,76.00
2019-03-01T09:44:14.606Z,88.27
2019-03-01T09:46:44.059Z,96.77
2019-03-01T09:49:13.716Z,67.73
2019-03-01T09:51:43.746Z,106.00
2019-03-01T09:54:14.516Z,87.63
2019-03-01T09:56:44.017Z,74.27
2019-03-01T09:59:13.576Z,70.43
2019-03-01T10:01:43.056Z,76.00
2019-03-01T10:04:12.536Z,84.03
2019-03-01T10:06:41.984Z,78.63
2019-03-01T10:09:12.464Z,110.13
2019-03-01T10:11:42.078Z,103.20
2019-03-01T10:14:11.715Z,87.20
2019-03-01T10:16:41.216Z,69.43
2019-03-01T10:19:10.788Z,87.97
2019-03-01T10:21:40.330Z,107.13
2019-03-01T10:24:09.894Z,97.60
2019-03-01T10:26:39.628Z,102.37
2019-03-01T10:29:09.195Z,113.97
2019-03-01T10:31:38.815Z,71.67
2019-03-01T10:34:08.413Z,99.70
2019-03-01T10:36:37.881Z,83.20
2019-03-01T10:39:13.677Z,112.27
2019-03-01T10:41:43.283Z,103.93
2019-03-01T10:44:12.896Z,65.37
2019-03-01T10:46:43.244Z,100.27
2019-03-01T10:49:13.026Z,92.97
2019-03-01T10:51:42.896Z,104.30
2019-03-01T10:54:16.639Z,90.80
2019-03-01T10:56:46.174Z,66.73
2019-03-01T10:59:15.725Z,97.40
2019-03-01T11:01:45.295Z,114.17
2019-03-01T11:04:14.797Z,65.80
2019-03-01T11:06:44.375Z,66.70
2019-03-01T11:09:14.150Z,64.10
2019-03-01T11:11:43.701Z,65.13
2019-03-01T11:14:13.262Z,57.43
2019-03-01T11:16:43.140Z,74.30
2019-03-01T11:19:12.748Z,70.80
2019-03-01T11:21:42.429Z,66.50
2019-03-01T11:24:15.197Z,53.67
2019-03-01T11:26:47.281Z,74.73
2019-03-01T11:29:16.862Z,71.70
2019-03-01T11:31:46.422Z,57.13
2019-03-01T11:34:16.062Z,59.30
2019-03-01T11:36:45.512Z,65.47
2019-03-01T11:39:16.882Z,64.77
2019-03-01T11:41:46.363Z,69.73
2019-03-01T11:44:15.896Z,55.17
2019-03-01T11:46:45.439Z,64.53
2019-03-01T11:49:15.237Z,69.67
2019-03-01T11:51:44.815Z,53.17
2019-03-01T11:54:14.319Z,45.63
2019-03-01T11:56:44.767Z,61.97
2019-03-01T11:59:14.375Z,65.80
2019-03-01T12:01:43.912Z,44.97
2019-03-01T12:04:13.447Z,53.23
2019-03-01T12:06:46.057Z,41.83
2019-03-01T12:09:15.667Z,39.50
2019-03-01T12:11:45.101Z,73.63
2019-03-01T12:14:14.679Z,48.43
2019-03-01T12:16:44.211Z,56.27
2019-03-01T12:19:14.208Z,55.20
2019-03-01T12:21:43.667Z,63.87
2019-03-01T12:24:13.229Z,67.07
2019-03-01T12:26:42.877Z,98.80
2019-03-01T12:29:12.440Z,34.90
2019-03-01T12:31:41.989Z,58.60
2019-03-01T12:34:11.493Z,33.50
2019-03-01T12:36:40.926Z,55.20
2019-03-01T12:39:10.805Z,87.87
2019-03-01T12:41:40.320Z,64.63
2019-03-01T12:44:10.371Z,65.50
2019-03-01T12:46:39.820Z,78.63
2019-03-01T12:49:10.477Z,62.93
2019-03-01T12:51:39.937Z,45.73
2019-03-01T12:54:09.458Z,59.73
2019-03-01T12:56:38.902Z,67.23
2019-03-01T12:59:08.547Z,54.97
2019-03-01T13:01:38.106Z,41.63
2019-03-01T13:04:07.587Z,47.57
2019-03-01T13:06:38.937Z,36.03
2019-03-01T13:09:15.344Z,34.23
2019-03-01T13:11:44.957Z,49.50
2019-03-01T13:14:14.447Z,29.20
2019-03-01T13:16:44.073Z,34.97
2019-03-01T13:19:13.580Z,21.97
2019-03-01T13:21:45.542Z,38.07
2019-03-01T13:24:16.377Z,31.93
2019-03-01T13:26:45.972Z,23.63
2019-03-01T13:29:15.550Z,28.83
2019-03-01T13:31:47.174Z,27.27
2019-03-01T13:34:16.584Z,25.40
2019-03-01T13:36:46.146Z,38.70
2019-03-01T13:39:16.879Z,41.97
2019-03-01T13:41:48.202Z,51.77
2019-03-01T13:44:17.902Z,29.60
2019-03-01T13:46:47.703Z,31.13
2019-03-01T13:49:17.404Z,42.60
2019-03-01T13:51:49.452Z,38.33
2019-03-01T13:54:18.338Z,32.60
2019-03-01T13:56:48.085Z,30.10
2019-03-01T13:59:18.882Z,35.57
2019-03-01T14:01:48.518Z,43.17
2019-03-01T14:04:18.326Z,42.33
2019-03-01T14:06:48.214Z,50.03
2019-03-01T14:09:18.189Z,26.93
2019-03-01T14:11:47.978Z,38.80
2019-03-01T14:14:17.869Z,53.67
2019-03-01T14:16:47.494Z,33.07
2019-03-01T14:19:17.323Z,33.73
2019-03-01T14:21:47.205Z,23.40
2019-03-01T14:24:16.762Z,43.40
2019-03-01T14:26:46.601Z,23.90
2019-03-01T14:29:16.980Z,26.63
2019-03-01T14:31:46.753Z,39.97
2019-03-01T14:34:16.431Z,50.13
2019-03-01T14:36:46.047Z,22.13
2019-03-01T14:39:17.975Z,26.67
2019-03-01T14:41:47.735Z,29.33
2019-03-01T14:44:17.472Z,14.97
2019-03-01T14:46:47.266Z,23.50
2019-03-01T14:49:18.455Z,35.33
2019-03-01T14:51:48.399Z,13.07
2019-03-01T14:54:18.286Z,13.73
2019-03-01T14:56:52.039Z,29.40
2019-03-01T14:59:38.194Z,16.87
2019-03-01T15:02:23.648Z,18.67
2019-03-01T15:04:54.357Z,20.90
2019-03-01T15:07:24.199Z,16.00
2019-03-01T15:09:57.178Z,19.03
2019-03-01T15:12:25.880Z,18.90
2019-03-01T15:14:55.775Z,11.13
2019-03-01T15:17:25.793Z,19.07
2019-03-01T15:19:55.763Z,10.70
2019-03-01T15:22:25.812Z,11.73
2019-03-01T15:24:55.931Z,14.80
2019-03-01T15:27:25.821Z,9.47
2019-03-01T15:29:56.612Z,6.90
2019-03-01T15:32:26.494Z,10.47
2019-03-01T15:34:56.512Z,26.70
2019-03-01T15:37:26.335Z,8.70
2019-03-01T15:39:56.432Z,8.77
2019-03-01T15:42:26.439Z,14.30
2019-03-01T15:44:56.401Z,15.67
2019-03-01T15:47:27.383Z,17.40
2019-03-01T15:49:57.356Z,12.90
2019-03-01T15:52:27.189Z,9.50
2019-03-01T15:54:57.154Z,10.67
2019-03-01T15:57:27.068Z,8.90
2019-03-01T15:59:57.403Z,9.93
2019-03-01T16:02:27.273Z,10.87
2019-03-01T16:04:57.092Z,9.20
2019-03-01T16:07:29.004Z,11.03
2019-03-01T16:10:01.103Z,14.73
2019-03-01T16:12:32.285Z,5.93
2019-03-01T16:15:01.823Z,6.50
2019-03-01T16:17:31.799Z,25.13
2019-03-01T16:20:01.906Z,11.37
2019-03-01T16:22:31.906Z,13.73
2019-03-01T16:25:01.979Z,12.60
2019-03-01T16:27:32.004Z,15.77
2019-03-01T16:30:01.885Z,15.83
2019-03-01T16:32:31.701Z,7.80
2019-03-01T16:35:01.652Z,10.40
2019-03-01T16:37:31.548Z,7.07
2019-03-01T16:40:01.822Z,9.63
2019-03-01T16:42:38.179Z,26.93
2019-03-01T16:45:03.688Z,10.67
2019-03-01T16:47:33.691Z,6.27
2019-03-01T16:50:06.410Z,6.63
2019-03-01T16:52:35.660Z,8.97
2019-03-01T16:55:06.226Z,9.17
2019-03-01T16:57:36.239Z,12.93
2019-03-01T17:00:07.490Z,8.77
2019-03-01T17:02:38.685Z,17.33
2019-03-01T17:05:10.005Z,9.13
2019-03-01T17:07:40.024Z,16.27
2019-03-01T17:10:12.065Z,6.93
2019-03-01T17:12:42.057Z,9.03
2019-03-01T17:15:17.536Z,6.70
2019-03-01T17:17:47.657Z,14.27
2019-03-01T17:20:18.489Z,6.90
2019-03-01T17:22:48.650Z,5.70
2019-03-01T17:25:19.501Z,20.67
2019-03-01T17:27:49.700Z,7.07
2019-03-01T17:30:20.264Z,11.50
2019-03-01T17:32:50.361Z,6.90
2019-03-01T17:35:20.351Z,10.27
2019-03-01T17:37:50.201Z,13.63
2019-03-01T17:40:20.243Z,7.40
2019-03-01T17:42:53.210Z,12.80
2019-03-01T17:45:22.355Z,8.67
2019-03-01T17:47:52.359Z,7.93
2019-03-01T17:50:22.488Z,6.80
2019-03-01T17:52:52.533Z,10.67
2019-03-01T17:55:24.296Z,8.60
2019-03-01T17:57:54.622Z,11.83
2019-03-01T18:00:30.770Z,14.57
2019-03-01T18:03:00.898Z,14.03
2019-03-01T18:05:31.043Z,9.40
2019-03-01T18:08:03.564Z,10.93
2019-03-01T18:10:34.164Z,11.27
2019-03-01T18:13:04.099Z,6.93
2019-03-01T18:15:34.103Z,5.80
2019-03-01T18:18:04.113Z,6.97
2019-03-01T18:20:37.685Z,13.03
2019-03-01T18:23:06.190Z,13.10
2019-03-01T18:25:36.349Z,8.30
2019-03-01T18:28:06.486Z,6.20
2019-03-01T18:30:36.398Z,6.10
2019-03-01T18:33:06.489Z,10.73
2019-03-01T18:35:36.612Z,18.20
2019-03-01T18:38:07.134Z,28.67
2019-03-01T18:40:37.512Z,5.80
2019-03-01T18:43:09.716Z,5.30
2019-03-01T18:45:41.975Z,21.07
2019-03-01T18:48:12.141Z,15.93
2019-03-01T18:50:42.226Z,5.90
2019-03-01T18:53:12.236Z,8.03
2019-03-01T18:55:42.208Z,9.27
2019-03-01T18:58:13.991Z,7.40
2019-03-01T19:00:44.165Z,6.33
2019-03-01T19:03:14.285Z,5.40
2019-03-01T19:05:44.421Z,6.10
2019-03-01T19:08:14.434Z,6.67
2019-03-01T19:10:53.747Z,21.10
2019-03-01T19:13:16.397Z,12.73
2019-03-01T19:15:48.009Z,6.83
2019-03-01T19:18:18.814Z,10.83
2019-03-01T19:20:49.177Z,31.87
2019-03-01T19:23:19.177Z,7.80
2019-03-01T19:25:49.347Z,11.03
2019-03-01T19:28:19.486Z,12.30
2019-03-01T19:30:50.606Z,5.47
2019-03-01T19:33:20.628Z,7.43
2019-03-01T19:35:50.890Z,16.57
2019-03-01T19:38:21.734Z,20.73
2019-03-01T19:40:53.045Z,13.73
2019-03-01T19:43:23.601Z,7.00
2019-03-01T19:45:53.619Z,9.73
2019-03-01T19:48:23.716Z,22.47
2019-03-01T19:50:54.912Z,21.23
2019-03-01T19:53:25.452Z,9.00
2019-03-01T19:55:56.413Z,29.97
2019-03-01T19:58:27.569Z,7.90
2019-03-01T20:00:57.728Z,6.70
2019-03-01T20:03:27.800Z,11.03
2019-03-01T20:05:57.771Z,9.70
2019-03-01T20:08:29.813Z,11.20
2019-03-01T20:10:59.961Z,5.57
2019-03-01T20:13:37.131Z,8.30
2019-03-01T20:16:07.150Z,17.30
2019-03-01T20:18:37.217Z,13.23
2019-03-01T20:21:09.407Z,17.53
2019-03-01T20:23:39.130Z,5.67
2019-03-01T20:26:08.608Z,9.57
2019-03-01T20:28:38.588Z,9.77
2019-03-01T20:31:08.787Z,4.53
2019-03-01T20:33:39.188Z,3.20
2019-03-01T20:36:09.166Z,6.33
2019-03-01T20:38:39.898Z,11.00
2019-03-01T20:41:11.008Z,5.73
2019-03-01T20:43:41.764Z,12.03
2019-03-01T20:46:12.832Z,12.43
2019-03-01T20:48:44.412Z,5.13
2019-03-01T20:51:14.621Z,7.60
2019-03-01T20:53:45.712Z,8.60
2019-03-01T20:56:17.156Z,13.17
2019-03-01T20:58:47.148Z,5.33
2019-03-01T21:01:17.316Z,3.57
2019-03-01T21:03:47.599Z,8.17
2019-03-01T21:06:17.488Z,10.40
2019-03-01T21:08:47.623Z,9.03
2019-03-01T21:11:17.824Z,4.60
2019-03-01T21:13:49.116Z,3.17
2019-03-01T21:16:19.620Z,4.53
2019-03-01T21:18:49.744Z,21.60
2019-03-01T21:21:19.777Z,4.97
2019-03-01T21:23:51.019Z,4.80
2019-03-01T21:26:21.098Z,5.47
2019-03-01T21:28:51.159Z,10.93
2019-03-01T21:31:22.148Z,4.50
2019-03-01T21:33:52.099Z,4.63
2019-03-01T21:36:22.939Z,6.83
2019-03-01T21:38:54.048Z,14.93
2019-03-01T21:41:26.552Z,4.73
2019-03-01T21:43:56.373Z,8.53
2019-03-01T21:46:26.221Z,5.40
2019-03-01T21:48:56.806Z,5.17
2019-03-01T21:51:28.120Z,4.13
2019-03-01T21:53:58.221Z,10.77
2019-03-01T21:56:28.138Z,18.53
2019-03-01T21:58:57.944Z,21.30
2019-03-01T22:01:27.904Z,5.00
2019-03-01T22:03:59.261Z,5.03
2019-03-01T22:06:29.480Z,6.77
2019-03-01T22:08:59.135Z,4.03
2019-03-01T22:11:29.221Z,6.27
2019-03-01T22:13:59.185Z,7.93
2019-03-01T22:16:28.984Z,10.23
2019-03-01T22:18:59.963Z,8.43
2019-03-01T22:21:30.047Z,3.87
2019-03-01T22:23:59.804Z,8.03
2019-03-01T22:26:29.362Z,5.33
2019-03-01T22:28:58.990Z,4.30
2019-03-01T22:31:32.627Z,4.57
2019-03-01T22:34:01.130Z,15.23
2019-03-01T22:36:30.704Z,7.50
2019-03-01T22:39:00.233Z,3.83
2019-03-01T22:41:30.001Z,9.77
2019-03-01T22:44:01.754Z,6.50
2019-03-01T22:46:31.394Z,11.20
2019-03-01T22:49:00.977Z,4.67
2019-03-01T22:51:30.517Z,7.00
2019-03-01T22:54:00.284Z,6.20
2019-03-01T22:56:29.896Z,5.60
2019-03-01T22:58:59.603Z,6.37
2019-03-01T23:01:36.458Z,9.30
2019-03-01T23:04:07.127Z,9.13
2019-03-01T23:06:36.577Z,3.80
2019-03-01T23:09:10.649Z,4.47
2019-03-01T23:11:40.547Z,4.73
2019-03-01T23:14:10.133Z,8.33
2019-03-01T23:16:39.791Z,5.83
2019-03-01T23:19:12.757Z,18.23
2019-03-01T23:21:41.156Z,10.50
2019-03-01T23:24:11.507Z,25.83
2019-03-01T23:26:40.980Z,5.13
2019-03-01T23:29:10.940Z,15.20
2019-03-01T23:31:40.532Z,20.10
2019-03-01T23:34:10.510Z,5.97
2019-03-01T23:36:40.103Z,13.10
2019-03-01T23:39:09.860Z,11.53
2019-03-01T23:41:39.447Z,8.40
2019-03-01T23:44:09.077Z,12.57
2019-03-01T23:46:38.631Z,13.03
2019-03-01T23:49:08.337Z,7.27
2019-03-01T23:51:38.397Z,6.13
2019-03-01T23:54:09.063Z,8.87
2019-03-01T23:56:39.207Z,11.30
2019-03-01T23:59:08.677Z,10.67
